sensor_id;sensor_type;location;lat;lon;timestamp;temperature;humidity
70826;SHT31;58446;41.490;22.098;2024-01-11T00:00:36;1.31;72.27
70826;SHT31;58446;41.490;22.098;2024-01-11T00:03:03;1.27;72.20
70826;SHT31;58446;41.490;22.098;2024-01-11T00:05:28;1.33;72.12
70826;SHT31;58446;41.490;22.098;2024-01-11T00:07:54;1.33;72.10
70826;SHT31;58446;41.490;22.098;2024-01-11T00:10:20;1.30;71.95
70826;SHT31;58446;41.490;22.098;2024-01-11T00:12:46;1.24;71.94
70826;SHT31;58446;41.490;22.098;2024-01-11T00:15:12;1.31;72.02
70826;SHT31;58446;41.490;22.098;2024-01-11T00:17:38;1.33;72.08
70826;SHT31;58446;41.490;22.098;2024-01-11T00:20:04;1.38;72.24
70826;SHT31;58446;41.490;22.098;2024-01-11T00:22:30;1.40;72.05
70826;SHT31;58446;41.490;22.098;2024-01-11T00:24:57;1.30;72.36
70826;SHT31;58446;41.490;22.098;2024-01-11T00:27:23;1.33;72.22
70826;SHT31;58446;41.490;22.098;2024-01-11T00:29:49;1.28;72.07
70826;SHT31;58446;41.490;22.098;2024-01-11T00:32:15;1.26;72.18
70826;SHT31;58446;41.490;22.098;2024-01-11T00:34:41;1.26;72.42
70826;SHT31;58446;41.490;22.098;2024-01-11T00:37:07;1.23;72.32
70826;SHT31;58446;41.490;22.098;2024-01-11T00:39:32;1.01;71.56
70826;SHT31;58446;41.490;22.098;2024-01-11T00:42:00;1.01;72.33
70826;SHT31;58446;41.490;22.098;2024-01-11T00:44:26;1.13;72.01
70826;SHT31;58446;41.490;22.098;2024-01-11T00:46:51;0.79;70.51
70826;SHT31;58446;41.490;22.098;2024-01-11T00:49:17;0.38;73.18
70826;SHT31;58446;41.490;22.098;2024-01-11T00:51:43;0.72;73.44
70826;SHT31;58446;41.490;22.098;2024-01-11T00:54:09;0.93;72.46
70826;SHT31;58446;41.490;22.098;2024-01-11T00:56:35;0.99;72.03
70826;SHT31;58446;41.490;22.098;2024-01-11T00:59:01;0.90;72.00
70826;SHT31;58446;41.490;22.098;2024-01-11T01:01:27;0.87;72.16
70826;SHT31;58446;41.490;22.098;2024-01-11T01:03:52;0.92;71.93
70826;SHT31;58446;41.490;22.098;2024-01-11T01:06:18;0.97;71.92
70826;SHT31;58446;41.490;22.098;2024-01-11T01:08:44;0.93;71.79
70826;SHT31;58446;41.490;22.098;2024-01-11T01:11:10;0.93;71.79
70826;SHT31;58446;41.490;22.098;2024-01-11T01:13:35;0.90;71.50
70826;SHT31;58446;41.490;22.098;2024-01-11T01:16:01;0.72;71.46
70826;SHT31;58446;41.490;22.098;2024-01-11T01:18:27;0.55;71.26
70826;SHT31;58446;41.490;22.098;2024-01-11T01:20:53;0.17;70.73
70826;SHT31;58446;41.490;22.098;2024-01-11T01:23:18;0.25;73.28
70826;SHT31;58446;41.490;22.098;2024-01-11T01:25:44;0.15;72.64
70826;SHT31;58446;41.490;22.098;2024-01-11T01:28:10;0.15;73.27
70826;SHT31;58446;41.490;22.098;2024-01-11T01:30:36;0.07;73.19
70826;SHT31;58446;41.490;22.098;2024-01-11T01:33:02;0.32;73.26
70826;SHT31;58446;41.490;22.098;2024-01-11T01:35:27;0.56;72.70
70826;SHT31;58446;41.490;22.098;2024-01-11T01:37:53;0.56;72.62
70826;SHT31;58446;41.490;22.098;2024-01-11T01:40:19;0.69;72.39
70826;SHT31;58446;41.490;22.098;2024-01-11T01:42:45;0.79;72.02
70826;SHT31;58446;41.490;22.098;2024-01-11T01:45:11;0.70;72.39
70826;SHT31;58446;41.490;22.098;2024-01-11T01:47:41;0.76;72.14
70826;SHT31;58446;41.490;22.098;2024-01-11T01:50:09;0.72;71.94
70826;SHT31;58446;41.490;22.098;2024-01-11T01:52:36;0.77;72.01
70826;SHT31;58446;41.490;22.098;2024-01-11T01:55:03;0.65;72.01
70826;SHT31;58446;41.490;22.098;2024-01-11T01:57:30;0.69;72.14
70826;SHT31;58446;41.490;22.098;2024-01-11T01:59:58;0.70;71.92
70826;SHT31;58446;41.490;22.098;2024-01-11T02:02:24;0.73;71.73
70826;SHT31;58446;41.490;22.098;2024-01-11T02:04:50;0.61;71.88
70826;SHT31;58446;41.490;22.098;2024-01-11T02:07:16;0.56;72.06
70826;SHT31;58446;41.490;22.098;2024-01-11T02:09:44;0.64;72.12
70826;SHT31;58446;41.490;22.098;2024-01-11T02:12:10;0.51;72.61
70826;SHT31;58446;41.490;22.098;2024-01-11T02:14:38;0.68;72.23
70826;SHT31;58446;41.490;22.098;2024-01-11T02:17:04;0.55;72.26
70826;SHT31;58446;41.490;22.098;2024-01-11T02:19:29;0.54;72.51
70826;SHT31;58446;41.490;22.098;2024-01-11T02:21:56;0.70;72.43
70826;SHT31;58446;41.490;22.098;2024-01-11T02:24:24;0.68;72.34
70826;SHT31;58446;41.490;22.098;2024-01-11T02:27:01;0.61;72.33
70826;SHT31;58446;41.490;22.098;2024-01-11T02:29:28;0.51;72.33
70826;SHT31;58446;41.490;22.098;2024-01-11T02:31:55;0.41;72.65
70826;SHT31;58446;41.490;22.098;2024-01-11T02:34:22;0.34;72.62
70826;SHT31;58446;41.490;22.098;2024-01-11T02:36:49;0.31;72.56
70826;SHT31;58446;41.490;22.098;2024-01-11T02:39:16;0.41;72.67
70826;SHT31;58446;41.490;22.098;2024-01-11T02:41:44;0.34;72.73
70826;SHT31;58446;41.490;22.098;2024-01-11T02:44:10;0.44;72.66
70826;SHT31;58446;41.490;22.098;2024-01-11T02:46:36;0.51;72.71
70826;SHT31;58446;41.490;22.098;2024-01-11T02:49:01;0.46;72.71
70826;SHT31;58446;41.490;22.098;2024-01-11T02:51:27;0.44;72.57
70826;SHT31;58446;41.490;22.098;2024-01-11T02:53:53;0.44;72.69
70826;SHT31;58446;41.490;22.098;2024-01-11T02:56:18;0.41;72.70
70826;SHT31;58446;41.490;22.098;2024-01-11T02:58:44;0.37;72.94
70826;SHT31;58446;41.490;22.098;2024-01-11T03:01:10;0.19;73.41
70826;SHT31;58446;41.490;22.098;2024-01-11T03:03:35;0.17;73.45
70826;SHT31;58446;41.490;22.098;2024-01-11T03:06:02;0.15;73.25
70826;SHT31;58446;41.490;22.098;2024-01-11T03:08:28;0.10;73.59
70826;SHT31;58446;41.490;22.098;2024-01-11T03:10:54;0.15;73.44
70826;SHT31;58446;41.490;22.098;2024-01-11T03:13:19;0.17;73.47
70826;SHT31;58446;41.490;22.098;2024-01-11T03:15:45;0.19;73.55
70826;SHT31;58446;41.490;22.098;2024-01-11T03:18:11;0.42;72.92
70826;SHT31;58446;41.490;22.098;2024-01-11T03:20:36;0.35;72.81
70826;SHT31;58446;41.490;22.098;2024-01-11T03:23:02;0.40;72.71
70826;SHT31;58446;41.490;22.098;2024-01-11T03:25:29;0.42;72.10
70826;SHT31;58446;41.490;22.098;2024-01-11T03:27:55;0.44;72.06
70826;SHT31;58446;41.490;22.098;2024-01-11T03:30:21;0.32;71.93
70826;SHT31;58446;41.490;22.098;2024-01-11T03:32:46;0.38;72.21
70826;SHT31;58446;41.490;22.098;2024-01-11T03:35:12;0.22;72.14
70826;SHT31;58446;41.490;22.098;2024-01-11T03:37:38;0.22;72.01
70826;SHT31;58446;41.490;22.098;2024-01-11T03:40:04;0.07;72.07
70826;SHT31;58446;41.490;22.098;2024-01-11T03:42:30;0.03;72.24
70826;SHT31;58446;41.490;22.098;2024-01-11T03:44:56;0.17;72.05
70826;SHT31;58446;41.490;22.098;2024-01-11T03:47:21;-0.16;72.06
70826;SHT31;58446;41.490;22.098;2024-01-11T03:49:47;0.05;72.40
70826;SHT31;58446;41.490;22.098;2024-01-11T03:52:13;-0.23;72.18
70826;SHT31;58446;41.490;22.098;2024-01-11T03:54:39;-0.31;72.15
70826;SHT31;58446;41.490;22.098;2024-01-11T03:57:05;-0.18;73.01
70826;SHT31;58446;41.490;22.098;2024-01-11T03:59:32;-0.21;73.19
70826;SHT31;58446;41.490;22.098;2024-01-11T04:01:57;-0.04;72.96
70826;SHT31;58446;41.490;22.098;2024-01-11T04:04:23;-0.04;72.86
70826;SHT31;58446;41.490;22.098;2024-01-11T04:06:49;-0.09;72.85
70826;SHT31;58446;41.490;22.098;2024-01-11T04:09:15;-0.16;73.38
70826;SHT31;58446;41.490;22.098;2024-01-11T04:11:41;-0.23;73.49
70826;SHT31;58446;41.490;22.098;2024-01-11T04:14:06;-0.14;73.43
70826;SHT31;58446;41.490;22.098;2024-01-11T04:16:32;-0.10;73.65
70826;SHT31;58446;41.490;22.098;2024-01-11T04:18:59;-0.13;73.36
70826;SHT31;58446;41.490;22.098;2024-01-11T04:21:26;-0.02;73.36
70826;SHT31;58446;41.490;22.098;2024-01-11T04:23:56;0.21;72.64
70826;SHT31;58446;41.490;22.098;2024-01-11T04:26:22;0.10;72.59
70826;SHT31;58446;41.490;22.098;2024-01-11T04:28:49;0.07;73.19
70826;SHT31;58446;41.490;22.098;2024-01-11T04:31:15;0.19;73.00
70826;SHT31;58446;41.490;22.098;2024-01-11T04:33:43;0.25;72.50
70826;SHT31;58446;41.490;22.098;2024-01-11T04:36:10;0.14;72.68
70826;SHT31;58446;41.490;22.098;2024-01-11T04:38:36;0.05;72.57
70826;SHT31;58446;41.490;22.098;2024-01-11T04:41:09;0.08;72.72
70826;SHT31;58446;41.490;22.098;2024-01-11T04:43:42;0.07;72.99
70826;SHT31;58446;41.490;22.098;2024-01-11T04:46:18;0.05;72.63
70826;SHT31;58446;41.490;22.098;2024-01-11T04:48:44;-0.09;72.96
70826;SHT31;58446;41.490;22.098;2024-01-11T04:51:11;0.03;72.95
70826;SHT31;58446;41.490;22.098;2024-01-11T04:53:40;0.11;72.31
70826;SHT31;58446;41.490;22.098;2024-01-11T04:56:07;0.13;72.53
70826;SHT31;58446;41.490;22.098;2024-01-11T04:58:34;0.13;72.25
70826;SHT31;58446;41.490;22.098;2024-01-11T05:01:00;-0.03;72.24
70826;SHT31;58446;41.490;22.098;2024-01-11T05:03:26;0.00;72.23
70826;SHT31;58446;41.490;22.098;2024-01-11T05:05:52;-0.03;72.15
70826;SHT31;58446;41.490;22.098;2024-01-11T05:08:17;-0.21;72.37
70826;SHT31;58446;41.490;22.098;2024-01-11T05:10:44;-0.14;72.47
70826;SHT31;58446;41.490;22.098;2024-01-11T05:13:10;-0.27;71.87
70826;SHT31;58446;41.490;22.098;2024-01-11T05:15:36;-0.26;72.22
70826;SHT31;58446;41.490;22.098;2024-01-11T05:18:01;-0.17;72.27
70826;SHT31;58446;41.490;22.098;2024-01-11T05:20:27;-0.23;72.12
70826;SHT31;58446;41.490;22.098;2024-01-11T05:22:53;-0.27;72.48
70826;SHT31;58446;41.490;22.098;2024-01-11T05:25:19;-0.23;72.38
70826;SHT31;58446;41.490;22.098;2024-01-11T05:27:45;-0.33;71.90
70826;SHT31;58446;41.490;22.098;2024-01-11T05:30:11;-0.28;72.41
70826;SHT31;58446;41.490;22.098;2024-01-11T05:32:37;-0.50;72.41
70826;SHT31;58446;41.490;22.098;2024-01-11T05:35:03;-0.42;72.68
70826;SHT31;58446;41.490;22.098;2024-01-11T05:37:29;-0.45;72.51
70826;SHT31;58446;41.490;22.098;2024-01-11T05:39:55;-0.38;72.70
70826;SHT31;58446;41.490;22.098;2024-01-11T05:42:23;-0.50;72.76
70826;SHT31;58446;41.490;22.098;2024-01-11T05:44:48;-0.47;72.97
70826;SHT31;58446;41.490;22.098;2024-01-11T05:47:14;-0.30;72.83
70826;SHT31;58446;41.490;22.098;2024-01-11T05:49:40;-0.30;72.83
70826;SHT31;58446;41.490;22.098;2024-01-11T05:52:06;-0.37;72.59
70826;SHT31;58446;41.490;22.098;2024-01-11T05:54:32;-0.13;72.57
70826;SHT31;58446;41.490;22.098;2024-01-11T05:56:57;-0.03;72.25
70826;SHT31;58446;41.490;22.098;2024-01-11T05:59:24;-0.27;72.03
70826;SHT31;58446;41.490;22.098;2024-01-11T06:01:50;-0.13;72.57
70826;SHT31;58446;41.490;22.098;2024-01-11T06:04:16;-0.27;72.75
70826;SHT31;58446;41.490;22.098;2024-01-11T06:06:42;-0.24;72.83
70826;SHT31;58446;41.490;22.098;2024-01-11T06:09:08;-0.31;73.05
70826;SHT31;58446;41.490;22.098;2024-01-11T06:11:33;-0.28;72.95
70826;SHT31;58446;41.490;22.098;2024-01-11T06:13:59;-0.20;73.08
70826;SHT31;58446;41.490;22.098;2024-01-11T06:16:26;-0.07;72.70
70826;SHT31;58446;41.490;22.098;2024-01-11T06:18:52;-0.06;72.44
70826;SHT31;58446;41.490;22.098;2024-01-11T06:21:18;-0.07;72.07
70826;SHT31;58446;41.490;22.098;2024-01-11T06:23:44;-0.21;72.15
70826;SHT31;58446;41.490;22.098;2024-01-11T06:26:09;-0.33;72.89
70826;SHT31;58446;41.490;22.098;2024-01-11T06:28:35;-0.20;72.95
70826;SHT31;58446;41.490;22.098;2024-01-11T06:31:01;-0.14;72.36
70826;SHT31;58446;41.490;22.098;2024-01-11T06:33:27;-0.10;72.09
70826;SHT31;58446;41.490;22.098;2024-01-11T06:35:53;-0.11;72.20
70826;SHT31;58446;41.490;22.098;2024-01-11T06:38:19;-0.07;71.84
70826;SHT31;58446;41.490;22.098;2024-01-11T06:40:45;-0.03;71.81
70826;SHT31;58446;41.490;22.098;2024-01-11T06:43:11;0.01;71.58
70826;SHT31;58446;41.490;22.098;2024-01-11T06:45:37;-0.06;71.33
70826;SHT31;58446;41.490;22.098;2024-01-11T06:48:03;0.03;71.50
70826;SHT31;58446;41.490;22.098;2024-01-11T06:50:29;-0.06;71.80
70826;SHT31;58446;41.490;22.098;2024-01-11T06:52:56;0.01;71.18
70826;SHT31;58446;41.490;22.098;2024-01-11T06:55:21;0.25;70.80
70826;SHT31;58446;41.490;22.098;2024-01-11T06:57:47;0.32;70.44
70826;SHT31;58446;41.490;22.098;2024-01-11T07:00:13;0.54;70.16
70826;SHT31;58446;41.490;22.098;2024-01-11T07:02:39;0.70;69.25
70826;SHT31;58446;41.490;22.098;2024-01-11T07:05:08;0.87;68.76
70826;SHT31;58446;41.490;22.098;2024-01-11T07:07:33;0.80;69.18
70826;SHT31;58446;41.490;22.098;2024-01-11T07:09:59;0.86;69.10
70826;SHT31;58446;41.490;22.098;2024-01-11T07:12:25;0.90;69.00
70826;SHT31;58446;41.490;22.098;2024-01-11T07:14:53;1.08;68.98
70826;SHT31;58446;41.490;22.098;2024-01-11T07:17:19;1.37;67.91
70826;SHT31;58446;41.490;22.098;2024-01-11T07:19:44;1.47;67.71
70826;SHT31;58446;41.490;22.098;2024-01-11T07:22:10;1.54;67.78
70826;SHT31;58446;41.490;22.098;2024-01-11T07:24:37;1.51;67.43
70826;SHT31;58446;41.490;22.098;2024-01-11T07:27:04;1.38;67.64
70826;SHT31;58446;41.490;22.098;2024-01-11T07:29:30;1.08;68.74
70826;SHT31;58446;41.490;22.098;2024-01-11T07:31:56;1.06;69.00
70826;SHT31;58446;41.490;22.098;2024-01-11T07:34:22;0.87;69.82
70826;SHT31;58446;41.490;22.098;2024-01-11T07:36:48;0.68;70.78
70826;SHT31;58446;41.490;22.098;2024-01-11T07:39:14;0.79;70.95
70826;SHT31;58446;41.490;22.098;2024-01-11T07:41:40;1.16;69.53
70826;SHT31;58446;41.490;22.098;2024-01-11T07:44:05;1.16;69.75
70826;SHT31;58446;41.490;22.098;2024-01-11T07:46:31;1.19;69.70
70826;SHT31;58446;41.490;22.098;2024-01-11T07:48:57;1.10;69.67
70826;SHT31;58446;41.490;22.098;2024-01-11T07:51:24;1.23;69.54
70826;SHT31;58446;41.490;22.098;2024-01-11T07:53:50;1.20;69.73
70826;SHT31;58446;41.490;22.098;2024-01-11T07:56:16;1.06;69.95
70826;SHT31;58446;41.490;22.098;2024-01-11T07:58:42;1.01;70.53
70826;SHT31;58446;41.490;22.098;2024-01-11T08:01:09;0.90;71.30
70826;SHT31;58446;41.490;22.098;2024-01-11T08:03:34;0.87;71.45
70826;SHT31;58446;41.490;22.098;2024-01-11T08:06:01;1.12;70.86
70826;SHT31;58446;41.490;22.098;2024-01-11T08:08:27;1.15;70.83
70826;SHT31;58446;41.490;22.098;2024-01-11T08:10:53;1.20;70.69
70826;SHT31;58446;41.490;22.098;2024-01-11T08:13:19;0.76;72.14
70826;SHT31;58446;41.490;22.098;2024-01-11T08:15:46;0.45;72.83
70826;SHT31;58446;41.490;22.098;2024-01-11T08:18:12;0.76;72.65
70826;SHT31;58446;41.490;22.098;2024-01-11T08:20:39;0.99;72.16
70826;SHT31;58446;41.490;22.098;2024-01-11T08:23:05;1.07;72.02
70826;SHT31;58446;41.490;22.098;2024-01-11T08:25:32;0.64;73.90
70826;SHT31;58446;41.490;22.098;2024-01-11T08:27:57;0.76;73.66
70826;SHT31;58446;41.490;22.098;2024-01-11T08:30:23;0.80;73.49
70826;SHT31;58446;41.490;22.098;2024-01-11T08:32:49;1.01;73.06
70826;SHT31;58446;41.490;22.098;2024-01-11T08:35:14;1.07;72.86
70826;SHT31;58446;41.490;22.098;2024-01-11T08:37:41;1.22;72.51
70826;SHT31;58446;41.490;22.098;2024-01-11T08:40:07;0.87;73.49
70826;SHT31;58446;41.490;22.098;2024-01-11T08:42:34;1.12;73.14
70826;SHT31;58446;41.490;22.098;2024-01-11T08:45:00;1.24;72.54
70826;SHT31;58446;41.490;22.098;2024-01-11T08:47:32;0.92;73.78
70826;SHT31;58446;41.490;22.098;2024-01-11T08:49:58;1.03;73.63
70826;SHT31;58446;41.490;22.098;2024-01-11T08:52:23;1.28;72.91
70826;SHT31;58446;41.490;22.098;2024-01-11T08:54:49;1.24;72.57
70826;SHT31;58446;41.490;22.098;2024-01-11T08:57:15;1.41;72.61
70826;SHT31;58446;41.490;22.098;2024-01-11T08:59:40;1.38;72.79
70826;SHT31;58446;41.490;22.098;2024-01-11T09:02:06;1.36;72.72
70826;SHT31;58446;41.490;22.098;2024-01-11T09:04:32;1.30;73.16
70826;SHT31;58446;41.490;22.098;2024-01-11T09:06:59;1.24;73.37
70826;SHT31;58446;41.490;22.098;2024-01-11T09:09:25;1.20;73.82
70826;SHT31;58446;41.490;22.098;2024-01-11T09:11:50;1.26;73.73
70826;SHT31;58446;41.490;22.098;2024-01-11T09:14:17;1.17;74.05
70826;SHT31;58446;41.490;22.098;2024-01-11T09:16:42;1.26;73.92
70826;SHT31;58446;41.490;22.098;2024-01-11T09:19:10;1.37;73.71
70826;SHT31;58446;41.490;22.098;2024-01-11T09:21:36;1.31;73.87
70826;SHT31;58446;41.490;22.098;2024-01-11T09:24:02;1.24;74.28
70826;SHT31;58446;41.490;22.098;2024-01-11T09:26:27;1.44;73.79
70826;SHT31;58446;41.490;22.098;2024-01-11T09:28:53;1.59;72.76
70826;SHT31;58446;41.490;22.098;2024-01-11T09:31:19;1.72;72.63
70826;SHT31;58446;41.490;22.098;2024-01-11T09:33:44;1.74;72.53
70826;SHT31;58446;41.490;22.098;2024-01-11T09:36:12;1.55;73.68
70826;SHT31;58446;41.490;22.098;2024-01-11T09:38:38;1.67;73.53
70826;SHT31;58446;41.490;22.098;2024-01-11T09:41:09;1.79;72.53
70826;SHT31;58446;41.490;22.098;2024-01-11T09:43:35;1.64;73.83
70826;SHT31;58446;41.490;22.098;2024-01-11T09:46:05;1.71;73.52
70826;SHT31;58446;41.490;22.098;2024-01-11T09:48:33;1.86;74.11
70826;SHT31;58446;41.490;22.098;2024-01-11T09:51:01;1.61;76.02
70826;SHT31;58446;41.490;22.098;2024-01-11T09:53:32;1.78;74.17
70826;SHT31;58446;41.490;22.098;2024-01-11T09:55:58;1.83;74.36
70826;SHT31;58446;41.490;22.098;2024-01-11T09:58:25;1.89;74.42
70826;SHT31;58446;41.490;22.098;2024-01-11T10:00:54;2.05;73.51
70826;SHT31;58446;41.490;22.098;2024-01-11T10:03:24;1.82;74.94
70826;SHT31;58446;41.490;22.098;2024-01-11T10:05:55;1.99;73.57
70826;SHT31;58446;41.490;22.098;2024-01-11T10:08:23;2.10;73.16
70826;SHT31;58446;41.490;22.098;2024-01-11T10:10:49;2.15;73.64
70826;SHT31;58446;41.490;22.098;2024-01-11T10:13:15;2.09;74.15
70826;SHT31;58446;41.490;22.098;2024-01-11T10:15:42;2.25;73.08
70826;SHT31;58446;41.490;22.098;2024-01-11T10:18:08;2.20;73.43
70826;SHT31;58446;41.490;22.098;2024-01-11T10:20:34;2.15;74.67
70826;SHT31;58446;41.490;22.098;2024-01-11T10:23:02;2.32;73.18
70826;SHT31;58446;41.490;22.098;2024-01-11T10:25:28;2.43;72.59
70826;SHT31;58446;41.490;22.098;2024-01-11T10:27:54;2.43;72.57
70826;SHT31;58446;41.490;22.098;2024-01-11T10:30:26;2.43;72.66
70826;SHT31;58446;41.490;22.098;2024-01-11T10:32:52;2.46;73.65
70826;SHT31;58446;41.490;22.098;2024-01-11T10:35:18;2.47;72.74
70826;SHT31;58446;41.490;22.098;2024-01-11T10:37:44;2.47;72.86
70826;SHT31;58446;41.490;22.098;2024-01-11T10:40:10;2.49;72.92
70826;SHT31;58446;41.490;22.098;2024-01-11T10:42:45;2.46;73.70
70826;SHT31;58446;41.490;22.098;2024-01-11T10:45:16;2.39;74.85
70826;SHT31;58446;41.490;22.098;2024-01-11T10:47:55;2.23;76.11
70826;SHT31;58446;41.490;22.098;2024-01-11T10:50:25;2.30;75.15
70826;SHT31;58446;41.490;22.098;2024-01-11T10:55:27;2.57;73.33
70826;SHT31;58446;41.490;22.098;2024-01-11T10:57:53;2.49;74.10
70826;SHT31;58446;41.490;22.098;2024-01-11T11:00:20;2.44;75.32
70826;SHT31;58446;41.490;22.098;2024-01-11T11:02:48;2.58;73.73
70826;SHT31;58446;41.490;22.098;2024-01-11T11:05:18;2.50;74.47
70826;SHT31;58446;41.490;22.098;2024-01-11T11:07:47;2.37;74.78
70826;SHT31;58446;41.490;22.098;2024-01-11T11:10:17;2.32;74.91
70826;SHT31;58446;41.490;22.098;2024-01-11T11:12:45;2.54;73.11
70826;SHT31;58446;41.490;22.098;2024-01-11T11:15:12;2.44;73.50
70826;SHT31;58446;41.490;22.098;2024-01-11T11:17:39;2.46;73.62
70826;SHT31;58446;41.490;22.098;2024-01-11T11:20:06;2.46;73.44
70826;SHT31;58446;41.490;22.098;2024-01-11T11:22:42;2.58;72.68
70826;SHT31;58446;41.490;22.098;2024-01-11T11:25:23;2.73;72.02
70826;SHT31;58446;41.490;22.098;2024-01-11T11:27:49;2.64;71.88
70826;SHT31;58446;41.490;22.098;2024-01-11T11:30:18;2.61;71.76
70826;SHT31;58446;41.490;22.098;2024-01-11T11:32:45;2.61;72.16
70826;SHT31;58446;41.490;22.098;2024-01-11T11:35:11;2.60;72.26
70826;SHT31;58446;41.490;22.098;2024-01-11T11:37:37;2.57;72.37
70826;SHT31;58446;41.490;22.098;2024-01-11T11:40:05;2.57;72.23
70826;SHT31;58446;41.490;22.098;2024-01-11T11:42:31;2.49;72.36
70826;SHT31;58446;41.490;22.098;2024-01-11T11:44:57;2.67;72.12
70826;SHT31;58446;41.490;22.098;2024-01-11T11:47:23;2.74;71.97
70826;SHT31;58446;41.490;22.098;2024-01-11T11:50:06;2.65;72.11
70826;SHT31;58446;41.490;22.098;2024-01-11T11:52:37;2.73;72.04
70826;SHT31;58446;41.490;22.098;2024-01-11T11:55:06;2.64;72.15
70826;SHT31;58446;41.490;22.098;2024-01-11T11:57:33;2.60;72.21
70826;SHT31;58446;41.490;22.098;2024-01-11T11:59:59;2.56;71.83
70826;SHT31;58446;41.490;22.098;2024-01-11T12:02:26;2.57;71.72
70826;SHT31;58446;41.490;22.098;2024-01-11T12:04:53;2.60;71.89
70826;SHT31;58446;41.490;22.098;2024-01-11T12:07:21;2.77;71.55
70826;SHT31;58446;41.490;22.098;2024-01-11T12:09:49;2.73;71.54
70826;SHT31;58446;41.490;22.098;2024-01-11T12:12:16;2.76;71.25
70826;SHT31;58446;41.490;22.098;2024-01-11T12:14:48;2.70;71.50
70826;SHT31;58446;41.490;22.098;2024-01-11T12:17:15;2.84;71.04
70826;SHT31;58446;41.490;22.098;2024-01-11T12:19:41;2.76;71.28
70826;SHT31;58446;41.490;22.098;2024-01-11T12:22:07;2.81;70.99
70826;SHT31;58446;41.490;22.098;2024-01-11T12:24:34;2.80;71.03
70826;SHT31;58446;41.490;22.098;2024-01-11T12:27:00;2.77;71.20
70826;SHT31;58446;41.490;22.098;2024-01-11T12:29:29;2.80;71.08
70826;SHT31;58446;41.490;22.098;2024-01-11T12:31:58;2.61;71.54
70826;SHT31;58446;41.490;22.098;2024-01-11T12:34:25;2.81;71.20
70826;SHT31;58446;41.490;22.098;2024-01-11T12:36:52;2.73;71.31
70826;SHT31;58446;41.490;22.098;2024-01-11T12:39:20;2.94;70.93
70826;SHT31;58446;41.490;22.098;2024-01-11T12:41:49;2.89;70.95
70826;SHT31;58446;41.490;22.098;2024-01-11T12:44:17;3.02;70.79
70826;SHT31;58446;41.490;22.098;2024-01-11T12:46:44;2.89;70.72
70826;SHT31;58446;41.490;22.098;2024-01-11T12:49:10;2.94;70.54
70826;SHT31;58446;41.490;22.098;2024-01-11T12:51:36;2.88;70.01
70826;SHT31;58446;41.490;22.098;2024-01-11T12:54:02;2.77;70.47
70826;SHT31;58446;41.490;22.098;2024-01-11T12:56:29;2.83;70.51
70826;SHT31;58446;41.490;22.098;2024-01-11T12:59:06;2.77;70.73
70826;SHT31;58446;41.490;22.098;2024-01-11T13:01:32;2.71;70.73
70826;SHT31;58446;41.490;22.098;2024-01-11T13:03:58;2.85;70.89
70826;SHT31;58446;41.490;22.098;2024-01-11T13:06:24;2.88;70.68
70826;SHT31;58446;41.490;22.098;2024-01-11T13:08:51;2.73;70.48
70826;SHT31;58446;41.490;22.098;2024-01-11T13:11:17;2.74;70.75
70826;SHT31;58446;41.490;22.098;2024-01-11T13:13:46;2.87;70.85
70826;SHT31;58446;41.490;22.098;2024-01-11T13:16:12;2.94;70.84
70826;SHT31;58446;41.490;22.098;2024-01-11T13:18:40;2.92;70.55
70826;SHT31;58446;41.490;22.098;2024-01-11T13:21:06;2.94;70.03
70826;SHT31;58446;41.490;22.098;2024-01-11T13:23:34;2.97;69.97
70826;SHT31;58446;41.490;22.098;2024-01-11T13:26:03;2.98;70.00
70826;SHT31;58446;41.490;22.098;2024-01-11T13:28:30;2.99;69.95
70826;SHT31;58446;41.490;22.098;2024-01-11T13:30:56;2.88;70.43
70826;SHT31;58446;41.490;22.098;2024-01-11T13:33:22;2.89;70.43
70826;SHT31;58446;41.490;22.098;2024-01-11T13:35:49;2.83;71.19
70826;SHT31;58446;41.490;22.098;2024-01-11T13:38:15;2.73;71.10
70826;SHT31;58446;41.490;22.098;2024-01-11T13:40:41;2.70;71.26
70826;SHT31;58446;41.490;22.098;2024-01-11T13:43:09;2.80;70.28
70826;SHT31;58446;41.490;22.098;2024-01-11T13:45:35;2.70;71.08
70826;SHT31;58446;41.490;22.098;2024-01-11T13:48:05;2.62;71.53
70826;SHT31;58446;41.490;22.098;2024-01-11T13:50:33;2.58;71.65
70826;SHT31;58446;41.490;22.098;2024-01-11T13:53:02;2.61;71.85
70826;SHT31;58446;41.490;22.098;2024-01-11T13:55:28;2.85;71.51
70826;SHT31;58446;41.490;22.098;2024-01-11T13:58:02;2.87;71.41
70826;SHT31;58446;41.490;22.098;2024-01-11T14:00:28;2.88;71.09
70826;SHT31;58446;41.490;22.098;2024-01-11T14:02:54;2.78;71.65
70826;SHT31;58446;41.490;22.098;2024-01-11T14:05:20;2.81;71.33
70826;SHT31;58446;41.490;22.098;2024-01-11T14:07:46;2.80;71.35
70826;SHT31;58446;41.490;22.098;2024-01-11T14:10:14;2.71;71.56
70826;SHT31;58446;41.490;22.098;2024-01-11T14:12:40;2.68;71.82
70826;SHT31;58446;41.490;22.098;2024-01-11T14:15:07;2.67;71.98
70826;SHT31;58446;41.490;22.098;2024-01-11T14:17:37;2.54;72.21
70826;SHT31;58446;41.490;22.098;2024-01-11T14:20:03;2.53;72.20
70826;SHT31;58446;41.490;22.098;2024-01-11T14:22:31;2.49;72.54
70826;SHT31;58446;41.490;22.098;2024-01-11T14:24:57;2.56;72.56
70826;SHT31;58446;41.490;22.098;2024-01-11T14:27:23;2.71;72.15
70826;SHT31;58446;41.490;22.098;2024-01-11T14:29:49;2.77;72.16
70826;SHT31;58446;41.490;22.098;2024-01-11T14:32:15;2.68;72.01
70826;SHT31;58446;41.490;22.098;2024-01-11T14:34:45;2.74;72.37
70826;SHT31;58446;41.490;22.098;2024-01-11T14:37:11;2.58;72.48
70826;SHT31;58446;41.490;22.098;2024-01-11T14:39:37;2.50;72.96
70826;SHT31;58446;41.490;22.098;2024-01-11T14:42:04;2.34;72.86
70826;SHT31;58446;41.490;22.098;2024-01-11T14:44:29;2.16;73.25
70826;SHT31;58446;41.490;22.098;2024-01-11T14:46:55;2.08;73.52
70826;SHT31;58446;41.490;22.098;2024-01-11T14:49:23;2.05;73.58
70826;SHT31;58446;41.490;22.098;2024-01-11T14:51:50;2.33;73.86
70826;SHT31;58446;41.490;22.098;2024-01-11T14:54:16;2.34;73.65
70826;SHT31;58446;41.490;22.098;2024-01-11T14:56:42;2.60;72.89
70826;SHT31;58446;41.490;22.098;2024-01-11T14:59:08;2.60;72.61
70826;SHT31;58446;41.490;22.098;2024-01-11T15:01:34;2.33;73.16
70826;SHT31;58446;41.490;22.098;2024-01-11T15:03:59;2.05;73.96
70826;SHT31;58446;41.490;22.098;2024-01-11T15:06:25;2.01;74.39
70826;SHT31;58446;41.490;22.098;2024-01-11T15:08:51;1.94;74.58
70826;SHT31;58446;41.490;22.098;2024-01-11T15:11:16;1.81;74.61
70826;SHT31;58446;41.490;22.098;2024-01-11T15:13:42;1.75;74.81
70826;SHT31;58446;41.490;22.098;2024-01-11T15:16:08;1.77;75.05
70826;SHT31;58446;41.490;22.098;2024-01-11T15:18:33;1.74;75.61
70826;SHT31;58446;41.490;22.098;2024-01-11T15:20:59;1.71;75.52
70826;SHT31;58446;41.490;22.098;2024-01-11T15:23:25;1.79;75.78
70826;SHT31;58446;41.490;22.098;2024-01-11T15:25:50;1.64;75.74